EJU5420 LIMC-EGCC
Flight info
| Callsign | EJU5420 |
|---|---|
| Flight time | N/A |
| Altitude | 38000 |
| Route | AOSTA5X AOSTA DCT ORSUD DCT MOLUS DCT IBODI DCT GOTED DCT TRO DCT CLM DCT KOPOR DCT VESAN DCT RATUK DCT SOVAT L613 SANDY UN57 WELIN T420 ELVOS ELVOS1M |
| Aircraft | A32N/M-V/N |
Departure
| Time | N/A |
|---|---|
| Airport | Milan Malpensa International Airport (LIMC) |
Arrival
| Time | 2026-05-06 20:01 |
|---|---|
| Airport | Manchester Airport (EGCC) |
| Time | Latitude | Longitude | Altitude | Speed | Heading |
|---|---|---|---|---|---|
| 2026-05-06 19:02 | 48.66224 | 3.30948 | 37943 ft | 450 kts | 312° |
| 2026-05-06 19:03 | 48.70451 | 3.24131 | 37950 ft | 450 kts | 312° |
| 2026-05-06 19:03 | 48.73608 | 3.19027 | 37949 ft | 449 kts | 312° |
| 2026-05-06 19:04 | 48.77843 | 3.12165 | 37946 ft | 449 kts | 312° |
| 2026-05-06 19:04 | 48.82140 | 3.05288 | 37949 ft | 449 kts | 315° |
| 2026-05-06 19:05 | 48.87020 | 2.99346 | 37951 ft | 450 kts | 325° |
| 2026-05-06 19:05 | 48.92419 | 2.94498 | 37952 ft | 450 kts | 329° |
| 2026-05-06 19:06 | 48.97842 | 2.89724 | 37957 ft | 450 kts | 329° |
| 2026-05-06 19:06 | 49.03270 | 2.84947 | 37959 ft | 450 kts | 329° |
| 2026-05-06 19:07 | 49.08663 | 2.80200 | 37960 ft | 450 kts | 329° |
| 2026-05-06 19:07 | 49.14081 | 2.75421 | 37960 ft | 449 kts | 329° |
| 2026-05-06 19:08 | 49.19491 | 2.70637 | 37959 ft | 449 kts | 329° |
| 2026-05-06 19:08 | 49.24908 | 2.65835 | 37954 ft | 449 kts | 329° |
| 2026-05-06 19:09 | 49.30308 | 2.61035 | 37957 ft | 449 kts | 328° |
| 2026-05-06 19:09 | 49.35694 | 2.56236 | 37956 ft | 448 kts | 328° |
| 2026-05-06 19:10 | 49.41089 | 2.51416 | 37957 ft | 448 kts | 328° |
| 2026-05-06 19:10 | 49.46449 | 2.46614 | 37959 ft | 448 kts | 328° |
| 2026-05-06 19:11 | 49.51993 | 2.42232 | 37959 ft | 449 kts | 337° |
| 2026-05-06 19:11 | 49.57932 | 2.39252 | 37957 ft | 449 kts | 342° |
| 2026-05-06 19:12 | 49.63920 | 2.36507 | 37957 ft | 449 kts | 342° |
| 2026-05-06 19:12 | 49.69924 | 2.33753 | 37954 ft | 449 kts | 342° |
| 2026-05-06 19:13 | 49.75921 | 2.31013 | 37948 ft | 449 kts | 342° |
| 2026-05-06 19:13 | 49.81870 | 2.28293 | 37945 ft | 449 kts | 342° |
| 2026-05-06 19:14 | 49.87865 | 2.25543 | 37947 ft | 449 kts | 342° |
| 2026-05-06 19:14 | 49.91878 | 2.23699 | 37952 ft | 449 kts | 342° |
| 2026-05-06 19:15 | 49.97585 | 2.21071 | 37951 ft | 449 kts | 342° |
| 2026-05-06 19:15 | 50.03576 | 2.18305 | 37955 ft | 449 kts | 342° |
| 2026-05-06 19:16 | 50.09575 | 2.15527 | 37961 ft | 450 kts | 342° |
| 2026-05-06 19:16 | 50.15572 | 2.12744 | 37963 ft | 450 kts | 342° |
| 2026-05-06 19:17 | 50.21583 | 2.09946 | 37966 ft | 450 kts | 342° |
| 2026-05-06 19:17 | 50.27541 | 2.07166 | 37967 ft | 450 kts | 342° |
| 2026-05-06 19:18 | 50.33503 | 2.04177 | 37975 ft | 449 kts | 336° |
| 2026-05-06 19:18 | 50.39001 | 1.99615 | 37984 ft | 446 kts | 324° |
| 2026-05-06 19:19 | 50.43836 | 1.93541 | 37984 ft | 445 kts | 318° |
| 2026-05-06 19:19 | 50.48486 | 1.87242 | 37997 ft | 445 kts | 318° |
| 2026-05-06 19:20 | 50.53171 | 1.80866 | 37999 ft | 444 kts | 318° |
| 2026-05-06 19:20 | 50.57838 | 1.74469 | 38000 ft | 444 kts | 317° |
| 2026-05-06 19:21 | 50.62489 | 1.68072 | 38006 ft | 444 kts | 317° |
| 2026-05-06 19:21 | 50.67113 | 1.61694 | 38003 ft | 443 kts | 317° |
| 2026-05-06 19:22 | 50.71751 | 1.55275 | 37993 ft | 443 kts | 317° |
| 2026-05-06 19:22 | 50.76371 | 1.48861 | 37991 ft | 442 kts | 317° |
| 2026-05-06 19:23 | 50.80990 | 1.42434 | 37995 ft | 442 kts | 317° |
| 2026-05-06 19:23 | 50.85601 | 1.36007 | 37987 ft | 441 kts | 317° |
| 2026-05-06 19:24 | 50.90195 | 1.29587 | 37999 ft | 440 kts | 317° |
| 2026-05-06 19:24 | 50.94842 | 1.23072 | 37990 ft | 440 kts | 317° |
| 2026-05-06 19:25 | 50.99421 | 1.16636 | 37988 ft | 439 kts | 317° |
| 2026-05-06 19:26 | 51.08700 | 1.03418 | 37984 ft | 439 kts | 314° |
| 2026-05-06 19:26 | 51.13045 | 0.96598 | 37981 ft | 439 kts | 314° |
| 2026-05-06 19:27 | 51.17222 | 0.90033 | 37984 ft | 439 kts | 314° |
| 2026-05-06 19:27 | 51.21596 | 0.83205 | 37977 ft | 439 kts | 314° |
| 2026-05-06 19:28 | 51.25971 | 0.76371 | 37977 ft | 440 kts | 314° |
| 2026-05-06 19:28 | 51.30347 | 0.69520 | 37973 ft | 440 kts | 314° |
| 2026-05-06 19:29 | 51.34719 | 0.62653 | 37978 ft | 440 kts | 314° |
| 2026-05-06 19:29 | 51.39066 | 0.55806 | 38014 ft | 441 kts | 314° |
| 2026-05-06 19:30 | 51.43436 | 0.48902 | 38015 ft | 441 kts | 314° |
| 2026-05-06 19:30 | 51.47798 | 0.41993 | 38013 ft | 441 kts | 314° |
| 2026-05-06 19:31 | 51.51428 | 0.36227 | 38016 ft | 441 kts | 314° |
| 2026-05-06 19:31 | 51.57976 | 0.25793 | 38023 ft | 441 kts | 314° |
| 2026-05-06 19:32 | 51.62329 | 0.18831 | 38028 ft | 441 kts | 314° |
| 2026-05-06 19:32 | 51.66643 | 0.11888 | 38026 ft | 441 kts | 313° |
| 2026-05-06 19:33 | 51.70962 | 0.04781 | 38018 ft | 440 kts | 313° |
| 2026-05-06 19:33 | 51.75039 | -0.01944 | 38040 ft | 440 kts | 313° |
| 2026-05-06 19:34 | 51.79323 | -0.09016 | 38044 ft | 440 kts | 313° |
| 2026-05-06 19:34 | 51.83592 | -0.16080 | 38022 ft | 440 kts | 313° |
| 2026-05-06 19:35 | 51.87865 | -0.23170 | 38020 ft | 439 kts | 313° |
| 2026-05-06 19:35 | 51.92131 | -0.30271 | 38021 ft | 439 kts | 313° |
| 2026-05-06 19:36 | 51.96387 | -0.37376 | 38016 ft | 439 kts | 313° |
| 2026-05-06 19:36 | 52.00613 | -0.44451 | 38014 ft | 438 kts | 313° |
| 2026-05-06 19:37 | 52.04858 | -0.51577 | 37651 ft | 438 kts | 313° |
| 2026-05-06 19:37 | 52.06977 | -0.55142 | 37021 ft | 438 kts | 313° |
| 2026-05-06 19:37 | 52.09102 | -0.58722 | 36239 ft | 441 kts | 312° |
| 2026-05-06 19:38 | 52.11242 | -0.62332 | 35368 ft | 445 kts | 312° |
| 2026-05-06 19:38 | 52.13391 | -0.65964 | 34577 ft | 445 kts | 312° |
| 2026-05-06 19:38 | 52.15510 | -0.69551 | 33821 ft | 445 kts | 312° |
| 2026-05-06 19:38 | 52.17654 | -0.73184 | 32891 ft | 445 kts | 312° |
| 2026-05-06 19:39 | 52.19805 | -0.76835 | 32073 ft | 444 kts | 312° |
| 2026-05-06 19:39 | 52.21943 | -0.80471 | 31284 ft | 443 kts | 312° |
| 2026-05-06 19:39 | 52.24157 | -0.83976 | 30465 ft | 444 kts | 317° |
| 2026-05-06 19:39 | 52.26618 | -0.87030 | 29695 ft | 444 kts | 324° |
| 2026-05-06 19:40 | 52.29227 | -0.89645 | 29217 ft | 435 kts | 327° |
| 2026-05-06 19:40 | 52.31787 | -0.92183 | 28746 ft | 426 kts | 326° |
| 2026-05-06 19:40 | 52.34290 | -0.94690 | 28193 ft | 419 kts | 326° |
| 2026-05-06 19:40 | 52.36761 | -0.97169 | 27655 ft | 413 kts | 326° |
| 2026-05-06 19:41 | 52.39167 | -0.99580 | 27113 ft | 408 kts | 327° |
| 2026-05-06 19:41 | 52.41575 | -1.01992 | 26583 ft | 403 kts | 327° |
| 2026-05-06 19:41 | 52.43953 | -1.04374 | 26041 ft | 398 kts | 327° |
| 2026-05-06 19:41 | 52.46309 | -1.06735 | 25509 ft | 394 kts | 327° |
| 2026-05-06 19:42 | 52.48641 | -1.09075 | 24972 ft | 390 kts | 327° |
| 2026-05-06 19:42 | 52.50944 | -1.11390 | 24463 ft | 386 kts | 327° |
| 2026-05-06 19:42 | 52.53226 | -1.13690 | 23940 ft | 383 kts | 327° |
| 2026-05-06 19:42 | 52.55497 | -1.15982 | 23331 ft | 382 kts | 327° |
| 2026-05-06 19:43 | 52.57736 | -1.18243 | 22849 ft | 376 kts | 327° |
| 2026-05-06 19:43 | 52.59953 | -1.20481 | 22339 ft | 371 kts | 327° |
| 2026-05-06 19:43 | 52.62137 | -1.22688 | 21835 ft | 366 kts | 327° |
| 2026-05-06 19:43 | 52.64296 | -1.24872 | 21326 ft | 362 kts | 327° |
| 2026-05-06 19:44 | 52.66430 | -1.27034 | 20831 ft | 358 kts | 327° |
| 2026-05-06 19:44 | 52.68520 | -1.29154 | 20346 ft | 355 kts | 327° |
| 2026-05-06 19:44 | 52.70627 | -1.31294 | 20076 ft | 362 kts | 327° |
| 2026-05-06 19:44 | 52.72832 | -1.33541 | 19986 ft | 379 kts | 327° |
| 2026-05-06 19:45 | 52.75077 | -1.35829 | 20005 ft | 378 kts | 327° |
| 2026-05-06 19:45 | 52.77297 | -1.38091 | 19751 ft | 374 kts | 327° |
| 2026-05-06 19:45 | 52.79522 | -1.40362 | 19068 ft | 377 kts | 327° |
| 2026-05-06 19:45 | 52.81782 | -1.42674 | 18067 ft | 386 kts | 327° |
| 2026-05-06 19:46 | 52.84067 | -1.45014 | 17297 ft | 385 kts | 327° |
| 2026-05-06 19:46 | 52.86329 | -1.47332 | 16734 ft | 378 kts | 327° |
| 2026-05-06 19:46 | 52.88540 | -1.49599 | 16314 ft | 369 kts | 327° |
| 2026-05-06 19:46 | 52.90680 | -1.51796 | 16122 ft | 354 kts | 327° |
| 2026-05-06 19:47 | 52.92731 | -1.53905 | 15974 ft | 340 kts | 327° |
| 2026-05-06 19:47 | 52.94674 | -1.55905 | 15843 ft | 326 kts | 327° |
| 2026-05-06 19:47 | 52.96565 | -1.57855 | 15718 ft | 313 kts | 327° |
| 2026-05-06 19:47 | 52.98393 | -1.59743 | 15398 ft | 308 kts | 327° |
| 2026-05-06 19:48 | 53.00204 | -1.61615 | 14984 ft | 306 kts | 327° |
| 2026-05-06 19:48 | 53.02003 | -1.63477 | 14577 ft | 304 kts | 327° |
| 2026-05-06 19:48 | 53.03790 | -1.65328 | 14187 ft | 301 kts | 327° |
| 2026-05-06 19:48 | 53.05469 | -1.67397 | 13768 ft | 299 kts | 317° |
| 2026-05-06 19:49 | 53.06903 | -1.69879 | 13344 ft | 297 kts | 309° |
| 2026-05-06 19:49 | 53.08232 | -1.72499 | 12888 ft | 296 kts | 310° |
| 2026-05-06 19:49 | 53.09569 | -1.75095 | 12440 ft | 294 kts | 310° |
| 2026-05-06 19:49 | 53.10899 | -1.77664 | 12008 ft | 293 kts | 310° |
| 2026-05-06 19:50 | 53.12227 | -1.80233 | 11591 ft | 291 kts | 310° |
| 2026-05-06 19:50 | 53.13538 | -1.82776 | 11227 ft | 288 kts | 310° |
| 2026-05-06 19:50 | 53.14810 | -1.85247 | 11081 ft | 272 kts | 310° |
| 2026-05-06 19:50 | 53.16023 | -1.87607 | 10812 ft | 266 kts | 310° |
| 2026-05-06 19:51 | 53.17206 | -1.89912 | 10462 ft | 264 kts | 310° |
| 2026-05-06 19:51 | 53.18398 | -1.92235 | 10102 ft | 263 kts | 310° |
| 2026-05-06 19:51 | 53.19587 | -1.94557 | 9719 ft | 262 kts | 310° |
| 2026-05-06 19:51 | 53.20767 | -1.96863 | 9362 ft | 260 kts | 310° |
| 2026-05-06 19:52 | 53.21942 | -1.99132 | 9004 ft | 257 kts | 310° |
| 2026-05-06 19:52 | 53.22787 | -2.01708 | 8662 ft | 254 kts | 284° |
| 2026-05-06 19:52 | 53.22797 | -2.04626 | 8326 ft | 253 kts | 261° |
| 2026-05-06 19:52 | 53.22457 | -2.07497 | 7994 ft | 251 kts | 260° |
| 2026-05-06 19:53 | 53.22110 | -2.10346 | 7657 ft | 250 kts | 260° |
| 2026-05-06 19:53 | 53.21764 | -2.13179 | 7340 ft | 248 kts | 260° |
| 2026-05-06 19:53 | 53.21420 | -2.15977 | 7036 ft | 245 kts | 260° |
| 2026-05-06 19:53 | 53.21078 | -2.18751 | 6715 ft | 243 kts | 260° |
| 2026-05-06 19:54 | 53.20736 | -2.21504 | 6414 ft | 241 kts | 260° |
| 2026-05-06 19:54 | 53.20396 | -2.24239 | 6066 ft | 241 kts | 260° |
| 2026-05-06 19:54 | 53.20065 | -2.26969 | 5719 ft | 239 kts | 260° |
| 2026-05-06 19:54 | 53.19742 | -2.29685 | 5391 ft | 238 kts | 260° |
| 2026-05-06 19:55 | 53.19433 | -2.32334 | 5271 ft | 228 kts | 260° |
| 2026-05-06 19:55 | 53.19142 | -2.34843 | 5162 ft | 218 kts | 260° |
| 2026-05-06 19:55 | 53.18944 | -2.37313 | 4985 ft | 212 kts | 275° |
| 2026-05-06 19:55 | 53.19445 | -2.39578 | 4712 ft | 209 kts | 307° |
| 2026-05-06 19:56 | 53.20349 | -2.41404 | 4597 ft | 200 kts | 310° |
| 2026-05-06 19:56 | 53.21242 | -2.43154 | 4347 ft | 198 kts | 310° |
| 2026-05-06 19:56 | 53.22115 | -2.44864 | 4232 ft | 185 kts | 310° |
| 2026-05-06 19:56 | 53.22934 | -2.46468 | 3968 ft | 181 kts | 310° |
| 2026-05-06 19:57 | 53.23919 | -2.47749 | 3583 ft | 183 kts | 343° |
| 2026-05-06 19:57 | 53.25116 | -2.47627 | 3404 ft | 169 kts | 33° |
| 2026-05-06 19:57 | 53.25939 | -2.46399 | 3301 ft | 151 kts | 52° |
| 2026-05-06 19:57 | 53.26569 | -2.45048 | 3051 ft | 143 kts | 56° |
| 2026-05-06 19:58 | 53.27198 | -2.43717 | 2755 ft | 152 kts | 55° |
| 2026-05-06 19:58 | 53.27820 | -2.42359 | 2433 ft | 144 kts | 57° |
| 2026-05-06 19:58 | 53.28394 | -2.41010 | 2092 ft | 142 kts | 59° |
| 2026-05-06 19:58 | 53.28995 | -2.39724 | 1793 ft | 140 kts | 53° |
| 2026-05-06 19:59 | 53.29633 | -2.38480 | 1498 ft | 140 kts | 54° |
| 2026-05-06 19:59 | 53.30236 | -2.37210 | 1254 ft | 139 kts | 56° |
| 2026-05-06 19:59 | 53.30835 | -2.35945 | 977 ft | 138 kts | 53° |
| 2026-05-06 19:59 | 53.31450 | -2.34729 | 768 ft | 137 kts | 54° |
| 2026-05-06 20:00 | 53.32040 | -2.33480 | 582 ft | 139 kts | 54° |
| 2026-05-06 20:00 | 53.32646 | -2.32235 | 410 ft | 136 kts | 54° |
| 2026-05-06 20:00 | 53.33235 | -2.31002 | 251 ft | 135 kts | 53° |
| 2026-05-06 20:00 | 53.33793 | -2.29839 | 210 ft | 116 kts | 51° |
| 2026-05-06 20:01 | 53.34174 | -2.29050 | 220 ft | 58 kts | 50° |
| 2026-05-06 20:01 | 53.34340 | -2.28713 | 220 ft | 31 kts | 45° |
| 2026-05-06 20:01 | 53.34512 | -2.28532 | 226 ft | 28 kts | 21° |
| 2026-05-06 20:01 | 53.34664 | -2.28434 | 226 ft | 12 kts | 21° |
| 2026-05-06 20:02 | 53.34726 | -2.28373 | 226 ft | 11 kts | 47° |
| 2026-05-06 20:02 | 53.34776 | -2.28264 | 228 ft | 12 kts | 51° |
| 2026-05-06 20:02 | 53.34832 | -2.28150 | 229 ft | 11 kts | 50° |
| 2026-05-06 20:02 | 53.34887 | -2.28038 | 230 ft | 13 kts | 51° |
| 2026-05-06 20:03 | 53.34946 | -2.27915 | 232 ft | 14 kts | 51° |
| 2026-05-06 20:03 | 53.35011 | -2.27779 | 235 ft | 16 kts | 51° |
| 2026-05-06 20:03 | 53.35081 | -2.27636 | 238 ft | 17 kts | 51° |
| 2026-05-06 20:03 | 53.35156 | -2.27480 | 237 ft | 17 kts | 51° |
| 2026-05-06 20:04 | 53.35230 | -2.27327 | 238 ft | 16 kts | 51° |
| 2026-05-06 20:04 | 53.35314 | -2.27196 | 240 ft | 17 kts | 21° |
| 2026-05-06 20:04 | 53.35404 | -2.27235 | 241 ft | 11 kts | 321° |
| 2026-05-06 20:04 | 53.35468 | -2.27321 | 242 ft | 13 kts | 321° |
| 2026-05-06 20:05 | 53.35539 | -2.27416 | 241 ft | 11 kts | 321° |
| 2026-05-06 20:05 | 53.35608 | -2.27509 | 240 ft | 15 kts | 321° |
| 2026-05-06 20:05 | 53.35640 | -2.27550 | 240 ft | 1 kts | 323° |
| 2026-05-06 20:05 | 53.35659 | -2.27569 | 240 ft | 3 kts | 344° |
| 2026-05-06 20:06 | 53.35680 | -2.27539 | 241 ft | 7 kts | 48° |
| 2026-05-06 20:06 | 53.35735 | -2.27434 | 242 ft | 14 kts | 49° |
| 2026-05-06 20:06 | 53.35800 | -2.27321 | 243 ft | 12 kts | 21° |
| 2026-05-06 20:06 | 53.35885 | -2.27317 | 244 ft | 13 kts | 359° |
| 2026-05-06 20:07 | 53.35935 | -2.27367 | 244 ft | 2 kts | 276° |
| 2026-05-06 20:07 | 53.35937 | -2.27399 | 244 ft | 5 kts | 275° |
| 2026-05-06 20:07 | 53.35937 | -2.27414 | 243 ft | 0 kts | 275° |